Harkers Island, North Carolina
Current Conditions -  °F | °C
As of 12:58 PM on Tuesday 27 Jan 2015 (Local Time) from KMRH Reporting Station
Overcast Overcast  
Wind Chill: 27°   Ceiling: 2300
Heat Index: 37°   Visibility: 10mi
Dew Point: 29°   Wind: 17mph
Humidity: 73%   Direction: 340°NNW
Pressure: 29.76"   Gusts: NA
Location:  34.7°N, 76.56°W
Report Text: KMRH 271758Z AUTO 34015KT 10SM OVC023 03/M02 A2976 RMK AO2 SLP078 T00281017 10039 20022 58007 TSNO
Loading
Personal Weather Stations






























Interactive Weather Map New forecast layout! Learn more

10-Day Weather Forecast

Advertisements
Track Severe Weather on mobile